AirNav   Everest Fuels
 
 1201 users online  

4MS9 Providence Airpark
Canton, Mississippi, USA

GOING TO CANTON?


FAA INFORMATION EFFECTIVE 26 MARCH 2020

Location

FAA Identifier: 4MS9
Lat/Long: 32-39-57.5000N 090-04-03.5000W
32-39.958333N 090-04.058333W
32.6659722,-90.0676389
(estimated)
Elevation: 240 ft. / 73 m (estimated)
Variation: 01E (1995)
From city: 4 miles NW of CANTON, MS
Time zone: UTC -5 (UTC -6 during Standard Time)
Zip code: 39046

Airport Operations

Airport use: Private use. Permission required prior to landing
Activation date: 06/1999
Control tower: no
ARTCC: MEMPHIS CENTER
FSS: GREENWOOD FLIGHT SERVICE STATION
Attendance: MON-SAT DAYLIGHT HOURS
Wind indicator: yes
Segmented circle: no
Lights: FOR LIRL RY 18/36 CALL 601-831-2162.

Airport Communications

WX AWOS-3PT at MBO (14 nm S): 119.125 (601-605-8137)

Nearby radio navigation aids

VOR radial/distance  VOR name  Freq  Var
MHZr008/14.0MAGNOLIA VORTAC113.2001W

Airport Services

Fuel available: 100LL

Runway Information

Runway 18/36

Dimensions: 4000 x 75 ft. / 1219 x 23 m
Surface: turf
Runway edge lights: low intensity
RUNWAY 18  RUNWAY 36
Traffic pattern: leftleft
Obstructions: 50 ft. trees, 1300 ft. from runwaynone

Airport Ownership and Management from official FAA records

Ownership: Privately-owned
Owner: PROVIDENCE AIRPARK, LLC
913 PISGAH BOTTON ROAD
CANTON, MS 39046
Phone 601-831-2162
Manager: CHUCK BELL
111 JOHNSTONE DRIVE
MADISON, MS 39110
Phone 601-831-2162

Airport Operational Statistics

Aircraft based on the field: 2
Single engine airplanes: 2
    

Additional Remarks

FOR CD CTC JACKSON APCH AT 601-965-4625, WHEN APCH CLSD CTC MEMPHIS ARTCC AT 901-368-8453.

Instrument Procedures

There are no published instrument procedures at 4MS9.

Some nearby airports with instrument procedures:

KMBO - Bruce Campbell Field Airport (14 nm S)
KJAN - Jackson-Medgar Wiley Evers International Airport (21 nm S)
KHKS - Hawkins Field Airport (21 nm S)
87I - Yazoo County Airport (24 nm NW)
19M - C A Moore Airport (28 nm N)
 
Loc | Ops | Rwys | IFR | FBO | Links
Com | Nav | Svcs | Stats | Notes
Area around 4MS9 (Providence Airpark)
 
Road maps at: MapQuest Bing Google
 
Aerial photo
No photo
 
Sectional chart

 
Airport distance calculator
Flying to Providence Airpark? Find the distance to fly.

From to 4MS9

Sunrise and sunset
Times for 30-Mar-2020
 Local
(UTC-5)
 Zulu
(UTC)
Morning civil twilight06:2611:26
Sunrise06:5111:51
Sunset19:1800:18
Evening civil twilight19:4300:43

Current date and time
Zulu (UTC)  30-Mar-2020 19:45:26
Local (UTC-5)  30-Mar-2020 14:45:26
 
METAR
KMBO 
14nm S 
301935Z AUTO 00000KT 10SM SCT060 21/06 A3011 RMK AO2
KJAN 
21nm S 
301854Z 09009KT 10SM SCT050 BKN250 24/06 A3011 RMK AO2 SLP193 T02390061
KHKS 
21nm S 
301853Z 10007KT 10SM CLR 24/06 A3012 RMK AO2 SLP192 T02390061
TAF
KJAN 
21nm S 
301728Z 3018/3118 05009KT P6SM BKN060 BKN250 FM310100 07008KT P6SM BKN040 OVC100 FM310800 12010KT P6SM -RA VCTS BKN015 OVC025CB FM311200 23011KT 5SM -RA BR OVC015 FM311500 31013G20KT P6SM SCT015 OVC025
KHKS 
21nm S 
301728Z 3018/3118 07007KT P6SM BKN050 BKN250 FM310100 06006KT P6SM BKN040 OVC100 FM310800 15009KT P6SM -RA VCTS BKN015 OVC025CB FM311100 23010KT 5SM -RA BR OVC015 FM311400 30012G19KT P6SM SCT015 OVC025
NOTAMs
Click for the latest NOTAMs
NOTAMs are issued by the DoD/FAA and will open in a separate window not controlled by AirNav.

 

 
 

Would you like to see your business listed on this page?

 If your business provides an interesting product or service to pilots, flight crews, aircraft, or users of the Providence Airpark, you should consider listing it here.  To start the listing process, click on the button below
 
Add a business
 

Other Pages about Providence Airpark

Update a link
 
Copyright © AirNav, LLC. All rights reserved. Privacy Policy  Contact